sensor_id;sensor_type;location;lat;lon;timestamp;temperature;humidity
56428;DHT22;42331;53.578;9.760;2022-12-18T00:01:51;-3.50;99.90
56428;DHT22;42331;53.578;9.760;2022-12-18T00:04:23;-3.40;99.90
56428;DHT22;42331;53.578;9.760;2022-12-18T00:06:54;-3.40;99.90
56428;DHT22;42331;53.578;9.760;2022-12-18T00:09:25;-3.50;99.90
56428;DHT22;42331;53.578;9.760;2022-12-18T00:11:56;-3.50;99.90
56428;DHT22;42331;53.578;9.760;2022-12-18T00:14:26;-3.50;99.90
56428;DHT22;42331;53.578;9.760;2022-12-18T00:16:57;-3.40;99.90
56428;DHT22;42331;53.578;9.760;2022-12-18T00:19:31;-3.40;99.90
56428;DHT22;42331;53.578;9.760;2022-12-18T00:22:01;-3.40;99.90
56428;DHT22;42331;53.578;9.760;2022-12-18T00:24:32;-3.40;99.90
56428;DHT22;42331;53.578;9.760;2022-12-18T00:27:03;-3.40;99.90
56428;DHT22;42331;53.578;9.760;2022-12-18T00:29:34;-3.40;99.90
56428;DHT22;42331;53.578;9.760;2022-12-18T00:32:04;-3.40;99.90
56428;DHT22;42331;53.578;9.760;2022-12-18T00:34:35;-3.40;99.90
56428;DHT22;42331;53.578;9.760;2022-12-18T00:37:06;-3.40;99.90
56428;DHT22;42331;53.578;9.760;2022-12-18T00:39:36;-3.40;99.90
56428;DHT22;42331;53.578;9.760;2022-12-18T00:42:08;-3.40;99.90
56428;DHT22;42331;53.578;9.760;2022-12-18T00:44:59;-3.40;99.90
56428;DHT22;42331;53.578;9.760;2022-12-18T00:47:29;-3.40;99.90
56428;DHT22;42331;53.578;9.760;2022-12-18T00:50:00;-3.40;99.90
56428;DHT22;42331;53.578;9.760;2022-12-18T00:52:31;-3.40;99.90
56428;DHT22;42331;53.578;9.760;2022-12-18T00:55:02;-3.40;99.90
56428;DHT22;42331;53.578;9.760;2022-12-18T00:57:33;-3.40;99.90
56428;DHT22;42331;53.578;9.760;2022-12-18T01:00:06;-3.40;99.90
56428;DHT22;42331;53.578;9.760;2022-12-18T01:02:37;-3.50;99.90
56428;DHT22;42331;53.578;9.760;2022-12-18T01:05:09;-3.50;99.90
56428;DHT22;42331;53.578;9.760;2022-12-18T01:07:39;-3.50;99.90
56428;DHT22;42331;53.578;9.760;2022-12-18T01:10:12;-3.50;99.90
56428;DHT22;42331;53.578;9.760;2022-12-18T01:12:43;-3.50;99.90
56428;DHT22;42331;53.578;9.760;2022-12-18T01:15:15;-3.50;99.90
56428;DHT22;42331;53.578;9.760;2022-12-18T01:17:47;-3.50;99.90
56428;DHT22;42331;53.578;9.760;2022-12-18T01:20:17;-3.50;99.90
56428;DHT22;42331;53.578;9.760;2022-12-18T01:22:48;-3.50;99.90
56428;DHT22;42331;53.578;9.760;2022-12-18T01:25:19;-3.50;99.90
56428;DHT22;42331;53.578;9.760;2022-12-18T01:27:50;-3.50;99.90
56428;DHT22;42331;53.578;9.760;2022-12-18T01:30:21;-3.50;99.90
56428;DHT22;42331;53.578;9.760;2022-12-18T01:32:51;-3.50;99.90
56428;DHT22;42331;53.578;9.760;2022-12-18T01:35:22;-3.50;99.90
56428;DHT22;42331;53.578;9.760;2022-12-18T01:37:56;-3.60;99.90
56428;DHT22;42331;53.578;9.760;2022-12-18T01:40:26;-3.60;99.90
56428;DHT22;42331;53.578;9.760;2022-12-18T01:42:57;-3.50;99.90
56428;DHT22;42331;53.578;9.760;2022-12-18T01:45:31;-3.50;99.90
56428;DHT22;42331;53.578;9.760;2022-12-18T01:48:05;-3.60;99.90
56428;DHT22;42331;53.578;9.760;2022-12-18T01:50:40;-3.60;99.90
56428;DHT22;42331;53.578;9.760;2022-12-18T01:53:19;-3.60;99.90
56428;DHT22;42331;53.578;9.760;2022-12-18T01:56:00;-3.70;99.90
56428;DHT22;42331;53.578;9.760;2022-12-18T02:01:14;-3.60;99.90
56428;DHT22;42331;53.578;9.760;2022-12-18T02:03:45;-3.60;99.90
56428;DHT22;42331;53.578;9.760;2022-12-18T02:06:21;-3.60;99.90
56428;DHT22;42331;53.578;9.760;2022-12-18T02:11:41;-3.60;99.90
56428;DHT22;42331;53.578;9.760;2022-12-18T02:14:38;-3.60;99.90
56428;DHT22;42331;53.578;9.760;2022-12-18T02:17:11;-3.60;99.90
56428;DHT22;42331;53.578;9.760;2022-12-18T02:27:54;-3.80;99.90
56428;DHT22;42331;53.578;9.760;2022-12-18T02:30:30;-3.80;99.90
56428;DHT22;42331;53.578;9.760;2022-12-18T02:33:04;-3.90;99.90
56428;DHT22;42331;53.578;9.760;2022-12-18T02:35:36;-3.90;99.90
56428;DHT22;42331;53.578;9.760;2022-12-18T02:38:07;-4.00;99.90
56428;DHT22;42331;53.578;9.760;2022-12-18T02:40:38;-4.00;99.90
56428;DHT22;42331;53.578;9.760;2022-12-18T02:43:13;-4.10;99.90
56428;DHT22;42331;53.578;9.760;2022-12-18T02:45:59;-4.10;99.90
56428;DHT22;42331;53.578;9.760;2022-12-18T02:48:33;-4.10;99.90
56428;DHT22;42331;53.578;9.760;2022-12-18T02:56:51;-4.20;99.90
56428;DHT22;42331;53.578;9.760;2022-12-18T02:59:33;-4.20;99.90
56428;DHT22;42331;53.578;9.760;2022-12-18T03:02:11;-4.20;99.90
56428;DHT22;42331;53.578;9.760;2022-12-18T03:05:00;-4.30;99.90
56428;DHT22;42331;53.578;9.760;2022-12-18T03:07:38;-4.30;99.90
56428;DHT22;42331;53.578;9.760;2022-12-18T03:10:14;-4.30;99.90
56428;DHT22;42331;53.578;9.760;2022-12-18T03:12:53;-4.30;99.90
56428;DHT22;42331;53.578;9.760;2022-12-18T03:15:35;-4.30;99.90
56428;DHT22;42331;53.578;9.760;2022-12-18T03:18:12;-4.30;99.90
56428;DHT22;42331;53.578;9.760;2022-12-18T03:20:46;-4.30;99.90
56428;DHT22;42331;53.578;9.760;2022-12-18T03:23:22;-4.30;99.90
56428;DHT22;42331;53.578;9.760;2022-12-18T03:25:57;-4.30;99.90
56428;DHT22;42331;53.578;9.760;2022-12-18T03:28:31;-4.40;99.90
56428;DHT22;42331;53.578;9.760;2022-12-18T03:31:04;-4.30;99.90
56428;DHT22;42331;53.578;9.760;2022-12-18T03:36:10;-4.30;99.90
56428;DHT22;42331;53.578;9.760;2022-12-18T03:38:41;-4.30;99.90
56428;DHT22;42331;53.578;9.760;2022-12-18T03:44:01;-4.30;99.90
56428;DHT22;42331;53.578;9.760;2022-12-18T03:46:47;-4.30;99.90
56428;DHT22;42331;53.578;9.760;2022-12-18T03:49:40;-4.30;99.90
56428;DHT22;42331;53.578;9.760;2022-12-18T03:52:30;-4.30;99.90
56428;DHT22;42331;53.578;9.760;2022-12-18T03:55:05;-4.30;99.90
56428;DHT22;42331;53.578;9.760;2022-12-18T03:57:38;-4.30;99.90
56428;DHT22;42331;53.578;9.760;2022-12-18T04:00:10;-4.30;99.90
56428;DHT22;42331;53.578;9.760;2022-12-18T04:02:48;-4.30;99.90
56428;DHT22;42331;53.578;9.760;2022-12-18T04:05:22;-4.30;99.90
56428;DHT22;42331;53.578;9.760;2022-12-18T04:07:55;-4.30;99.90
56428;DHT22;42331;53.578;9.760;2022-12-18T04:10:26;-4.30;99.90
56428;DHT22;42331;53.578;9.760;2022-12-18T04:12:57;-4.30;99.90
56428;DHT22;42331;53.578;9.760;2022-12-18T04:15:28;-4.40;99.90
56428;DHT22;42331;53.578;9.760;2022-12-18T04:17:59;-4.30;99.90
56428;DHT22;42331;53.578;9.760;2022-12-18T04:20:30;-4.30;99.90
56428;DHT22;42331;53.578;9.760;2022-12-18T04:23:00;-4.30;99.90
56428;DHT22;42331;53.578;9.760;2022-12-18T04:25:31;-4.20;99.90
56428;DHT22;42331;53.578;9.760;2022-12-18T04:28:02;-4.20;99.90
56428;DHT22;42331;53.578;9.760;2022-12-18T04:33:07;-4.20;99.90
56428;DHT22;42331;53.578;9.760;2022-12-18T04:35:39;-4.20;99.90
56428;DHT22;42331;53.578;9.760;2022-12-18T04:38:10;-4.30;99.90
56428;DHT22;42331;53.578;9.760;2022-12-18T04:40:41;-4.30;99.90
56428;DHT22;42331;53.578;9.760;2022-12-18T04:43:12;-4.30;99.90
56428;DHT22;42331;53.578;9.760;2022-12-18T04:45:42;-4.30;99.90
56428;DHT22;42331;53.578;9.760;2022-12-18T04:48:13;-4.30;99.90
56428;DHT22;42331;53.578;9.760;2022-12-18T04:50:44;-4.30;99.90
56428;DHT22;42331;53.578;9.760;2022-12-18T04:53:14;-4.30;99.90
56428;DHT22;42331;53.578;9.760;2022-12-18T04:55:45;-4.30;99.90
56428;DHT22;42331;53.578;9.760;2022-12-18T04:58:16;-4.30;99.90
56428;DHT22;42331;53.578;9.760;2022-12-18T05:00:47;-4.30;99.90
56428;DHT22;42331;53.578;9.760;2022-12-18T05:03:18;-4.30;99.90
56428;DHT22;42331;53.578;9.760;2022-12-18T05:05:52;-4.30;99.90
56428;DHT22;42331;53.578;9.760;2022-12-18T05:08:23;-4.30;99.90
56428;DHT22;42331;53.578;9.760;2022-12-18T05:11:02;-4.40;99.90
56428;DHT22;42331;53.578;9.760;2022-12-18T05:13:34;-4.30;99.90
56428;DHT22;42331;53.578;9.760;2022-12-18T05:16:06;-4.30;99.90
56428;DHT22;42331;53.578;9.760;2022-12-18T05:18:37;-4.30;99.90
56428;DHT22;42331;53.578;9.760;2022-12-18T05:21:08;-4.30;99.90
56428;DHT22;42331;53.578;9.760;2022-12-18T05:23:38;-4.30;99.90
56428;DHT22;42331;53.578;9.760;2022-12-18T05:26:14;-4.30;99.90
56428;DHT22;42331;53.578;9.760;2022-12-18T05:28:46;-4.40;99.90
56428;DHT22;42331;53.578;9.760;2022-12-18T05:31:17;-4.30;99.90
56428;DHT22;42331;53.578;9.760;2022-12-18T05:33:51;-4.40;99.90
56428;DHT22;42331;53.578;9.760;2022-12-18T05:36:22;-4.40;99.90
56428;DHT22;42331;53.578;9.760;2022-12-18T05:38:52;-4.50;99.90
56428;DHT22;42331;53.578;9.760;2022-12-18T05:41:23;-4.50;99.90
56428;DHT22;42331;53.578;9.760;2022-12-18T05:43:54;-4.60;99.90
56428;DHT22;42331;53.578;9.760;2022-12-18T05:46:25;-4.60;99.90
56428;DHT22;42331;53.578;9.760;2022-12-18T05:48:59;-4.70;99.90
56428;DHT22;42331;53.578;9.760;2022-12-18T05:51:30;-4.70;99.90
56428;DHT22;42331;53.578;9.760;2022-12-18T05:54:01;-4.60;99.90
56428;DHT22;42331;53.578;9.760;2022-12-18T05:56:32;-4.60;99.90
56428;DHT22;42331;53.578;9.760;2022-12-18T05:59:03;-4.70;99.90
56428;DHT22;42331;53.578;9.760;2022-12-18T06:01:34;-4.70;99.90
56428;DHT22;42331;53.578;9.760;2022-12-18T06:04:05;-4.60;99.90
56428;DHT22;42331;53.578;9.760;2022-12-18T06:06:35;-4.60;99.90
56428;DHT22;42331;53.578;9.760;2022-12-18T06:09:07;-4.50;99.90
56428;DHT22;42331;53.578;9.760;2022-12-18T06:11:39;-4.50;99.90
56428;DHT22;42331;53.578;9.760;2022-12-18T06:14:10;-4.50;99.90
56428;DHT22;42331;53.578;9.760;2022-12-18T06:16:41;-4.40;99.90
56428;DHT22;42331;53.578;9.760;2022-12-18T06:19:14;-4.40;99.90
56428;DHT22;42331;53.578;9.760;2022-12-18T06:21:46;-4.40;99.90
56428;DHT22;42331;53.578;9.760;2022-12-18T06:24:16;-4.30;99.90
56428;DHT22;42331;53.578;9.760;2022-12-18T06:26:47;-4.40;99.90
56428;DHT22;42331;53.578;9.760;2022-12-18T06:29:18;-4.40;99.90
56428;DHT22;42331;53.578;9.760;2022-12-18T06:31:48;-4.40;99.90
56428;DHT22;42331;53.578;9.760;2022-12-18T06:34:19;-4.30;99.90
56428;DHT22;42331;53.578;9.760;2022-12-18T06:36:50;-4.30;99.90
56428;DHT22;42331;53.578;9.760;2022-12-18T06:39:20;-4.30;99.90
56428;DHT22;42331;53.578;9.760;2022-12-18T06:41:51;-4.20;99.90
56428;DHT22;42331;53.578;9.760;2022-12-18T06:44:22;-4.30;99.90
56428;DHT22;42331;53.578;9.760;2022-12-18T06:46:53;-4.20;99.90
56428;DHT22;42331;53.578;9.760;2022-12-18T06:49:23;-4.20;99.90
56428;DHT22;42331;53.578;9.760;2022-12-18T06:51:54;-4.20;99.90
56428;DHT22;42331;53.578;9.760;2022-12-18T06:54:25;-4.20;99.90
56428;DHT22;42331;53.578;9.760;2022-12-18T06:56:56;-4.10;99.90
56428;DHT22;42331;53.578;9.760;2022-12-18T06:59:26;-4.10;99.90
56428;DHT22;42331;53.578;9.760;2022-12-18T07:01:57;-4.00;99.90
56428;DHT22;42331;53.578;9.760;2022-12-18T07:04:31;-4.10;99.90
56428;DHT22;42331;53.578;9.760;2022-12-18T07:07:02;-4.10;99.90
56428;DHT22;42331;53.578;9.760;2022-12-18T07:09:32;-4.00;99.90
56428;DHT22;42331;53.578;9.760;2022-12-18T07:12:03;-4.00;99.90
56428;DHT22;42331;53.578;9.760;2022-12-18T07:14:35;-4.00;99.90
56428;DHT22;42331;53.578;9.760;2022-12-18T07:17:05;-4.00;99.90
56428;DHT22;42331;53.578;9.760;2022-12-18T07:19:36;-4.00;99.90
56428;DHT22;42331;53.578;9.760;2022-12-18T07:22:07;-4.00;99.90
56428;DHT22;42331;53.578;9.760;2022-12-18T07:24:37;-4.00;99.90
56428;DHT22;42331;53.578;9.760;2022-12-18T07:27:08;-3.90;99.90
56428;DHT22;42331;53.578;9.760;2022-12-18T07:29:39;-3.90;99.90
56428;DHT22;42331;53.578;9.760;2022-12-18T07:32:09;-3.90;99.90
56428;DHT22;42331;53.578;9.760;2022-12-18T07:34:40;-3.90;99.90
56428;DHT22;42331;53.578;9.760;2022-12-18T07:37:11;-3.80;99.90
56428;DHT22;42331;53.578;9.760;2022-12-18T07:39:42;-3.90;99.90
56428;DHT22;42331;53.578;9.760;2022-12-18T07:42:13;-3.90;99.90
56428;DHT22;42331;53.578;9.760;2022-12-18T07:45:02;-3.80;99.90
56428;DHT22;42331;53.578;9.760;2022-12-18T07:47:36;-3.90;99.90
56428;DHT22;42331;53.578;9.760;2022-12-18T07:50:07;-3.90;99.90
56428;DHT22;42331;53.578;9.760;2022-12-18T07:52:38;-3.90;99.90
56428;DHT22;42331;53.578;9.760;2022-12-18T07:55:08;-3.80;99.90
56428;DHT22;42331;53.578;9.760;2022-12-18T07:57:39;-3.70;99.90
56428;DHT22;42331;53.578;9.760;2022-12-18T08:00:10;-3.70;99.90
56428;DHT22;42331;53.578;9.760;2022-12-18T08:02:41;-3.70;99.90
56428;DHT22;42331;53.578;9.760;2022-12-18T08:05:12;-3.60;99.90
56428;DHT22;42331;53.578;9.760;2022-12-18T08:07:43;-3.60;99.90
56428;DHT22;42331;53.578;9.760;2022-12-18T08:10:14;-3.50;99.90
56428;DHT22;42331;53.578;9.760;2022-12-18T08:12:48;-3.50;99.90
56428;DHT22;42331;53.578;9.760;2022-12-18T08:15:19;-3.50;99.90
56428;DHT22;42331;53.578;9.760;2022-12-18T08:17:49;-3.40;99.90
56428;DHT22;42331;53.578;9.760;2022-12-18T08:20:20;-3.40;99.90
56428;DHT22;42331;53.578;9.760;2022-12-18T08:22:51;-3.40;99.90
56428;DHT22;42331;53.578;9.760;2022-12-18T08:25:21;-3.40;99.90
56428;DHT22;42331;53.578;9.760;2022-12-18T08:27:52;-3.40;99.90
56428;DHT22;42331;53.578;9.760;2022-12-18T08:30:24;-3.30;99.90
56428;DHT22;42331;53.578;9.760;2022-12-18T08:32:54;-3.30;99.90
56428;DHT22;42331;53.578;9.760;2022-12-18T08:35:25;-3.30;99.90
56428;DHT22;42331;53.578;9.760;2022-12-18T08:37:56;-3.20;99.90
56428;DHT22;42331;53.578;9.760;2022-12-18T08:40:27;-3.20;99.90
56428;DHT22;42331;53.578;9.760;2022-12-18T08:42:57;-3.10;99.90
56428;DHT22;42331;53.578;9.760;2022-12-18T08:45:47;-3.10;99.90
56428;DHT22;42331;53.578;9.760;2022-12-18T08:48:17;-3.00;99.90
56428;DHT22;42331;53.578;9.760;2022-12-18T08:50:59;-2.90;99.90
56428;DHT22;42331;53.578;9.760;2022-12-18T08:53:30;-2.90;99.90
56428;DHT22;42331;53.578;9.760;2022-12-18T09:38:59;-2.80;99.90
56428;DHT22;42331;53.578;9.760;2022-12-18T09:44:36;-1.60;99.90
56428;DHT22;42331;53.578;9.760;2022-12-18T09:47:16;-1.40;99.90
56428;DHT22;42331;53.578;9.760;2022-12-18T09:49:56;-1.30;99.90
56428;DHT22;42331;53.578;9.760;2022-12-18T09:52:32;-1.10;99.90
56428;DHT22;42331;53.578;9.760;2022-12-18T09:58:02;-1.10;99.90
56428;DHT22;42331;53.578;9.760;2022-12-18T10:00:36;-1.00;99.90
